createdAt,value
2019-04-14T00:00:45.182Z,-70
2019-04-14T00:01:45.496Z,-71
2019-04-14T00:02:45.214Z,-71
2019-04-14T00:03:45.405Z,-71
2019-04-14T00:04:45.185Z,-71
2019-04-14T00:05:45.184Z,-71
2019-04-14T00:06:46.234Z,-71
2019-04-14T00:07:45.189Z,-71
2019-04-14T00:08:45.852Z,-71
2019-04-14T00:09:45.318Z,-71
2019-04-14T00:10:46.356Z,-71
2019-04-14T00:11:45.919Z,-71
2019-04-14T00:12:45.204Z,-72
2019-04-14T00:13:45.621Z,-71
2019-04-14T00:14:45.191Z,-72
2019-04-14T00:15:48.541Z,-71
2019-04-14T00:16:45.193Z,-71
2019-04-14T00:17:45.623Z,-71
2019-04-14T00:18:45.220Z,-72
2019-04-14T00:19:45.610Z,-71
2019-04-14T00:20:45.198Z,-71
2019-04-14T00:21:45.425Z,-71
2019-04-14T00:22:46.799Z,-71
2019-04-14T00:23:45.597Z,-71
2019-04-14T00:24:45.201Z,-71
2019-04-14T00:25:45.513Z,-71
2019-04-14T00:26:45.203Z,-71
2019-04-14T00:27:45.367Z,-71
2019-04-14T00:28:45.228Z,-71
2019-04-14T00:29:45.754Z,-71
2019-04-14T00:30:45.206Z,-71
2019-04-14T00:31:45.509Z,-71
2019-04-14T00:32:46.465Z,-71
2019-04-14T00:33:45.354Z,-71
2019-04-14T00:34:46.266Z,-71
2019-04-14T00:35:45.208Z,-71
2019-04-14T00:36:45.930Z,-71
2019-04-14T00:37:45.212Z,-72
2019-04-14T00:38:45.582Z,-71
2019-04-14T00:39:46.270Z,-70
2019-04-14T00:40:45.446Z,-71
2019-04-14T00:41:50.777Z,-71
2019-04-14T00:42:45.261Z,-71
2019-04-14T00:43:46.020Z,-71
2019-04-14T00:44:45.332Z,-71
2019-04-14T00:45:48.809Z,-70
2019-04-14T00:46:45.340Z,-70
2019-04-14T00:47:54.653Z,-70
2019-04-14T00:48:45.284Z,-70
2019-04-14T00:49:46.247Z,-71
2019-04-14T00:50:45.296Z,-72
2019-04-14T00:51:46.064Z,-71
2019-04-14T00:52:45.812Z,-71
2019-04-14T00:53:45.244Z,-71
2019-04-14T00:54:45.642Z,-71
2019-04-14T00:55:46.243Z,-71
2019-04-14T00:56:45.459Z,-71
2019-04-14T00:57:46.267Z,-71
2019-04-14T00:58:45.409Z,-71
2019-04-14T00:59:46.362Z,-71
2019-04-14T01:00:45.238Z,-71
2019-04-14T01:01:45.892Z,-71
2019-04-14T01:02:45.233Z,-71
2019-04-14T01:03:45.870Z,-71
2019-04-14T01:04:45.230Z,-71
2019-04-14T01:05:45.880Z,-71
2019-04-14T01:06:45.231Z,-71
2019-04-14T01:07:45.531Z,-71
2019-04-14T01:08:45.261Z,-71
2019-04-14T01:09:46.268Z,-70
2019-04-14T01:10:45.429Z,-71
2019-04-14T01:11:46.388Z,-71
2019-04-14T01:12:45.354Z,-70
2019-04-14T01:13:46.237Z,-70
2019-04-14T01:14:45.337Z,-70
2019-04-14T01:15:54.505Z,-70
2019-04-14T01:16:45.250Z,-71
2019-04-14T01:17:46.071Z,-71
2019-04-14T01:18:45.241Z,-71
2019-04-14T01:19:45.983Z,-70
2019-04-14T01:20:45.257Z,-71
2019-04-14T01:21:45.724Z,-71
2019-04-14T01:22:45.244Z,-70
2019-04-14T01:23:45.503Z,-70
2019-04-14T01:24:45.271Z,-71
2019-04-14T01:25:45.359Z,-71
2019-04-14T01:26:46.271Z,-70
2019-04-14T01:27:45.247Z,-71
2019-04-14T01:28:46.142Z,-71
2019-04-14T01:29:45.249Z,-71
2019-04-14T01:30:45.831Z,-71
2019-04-14T01:31:45.252Z,-70
2019-04-14T01:32:45.720Z,-71
2019-04-14T01:33:45.253Z,-73
2019-04-14T01:34:45.504Z,-72
2019-04-14T01:35:45.254Z,-72
2019-04-14T01:36:45.370Z,-72
2019-04-14T01:37:46.345Z,-72
2019-04-14T01:38:45.256Z,-72
2019-04-14T01:39:46.017Z,-72
2019-04-14T01:40:45.259Z,-72
2019-04-14T01:41:45.626Z,-72
2019-04-14T01:42:46.291Z,-72
2019-04-14T01:43:45.290Z,-72
2019-04-14T01:44:45.959Z,-72
2019-04-14T01:45:57.970Z,-72
2019-04-14T01:46:45.569Z,-72
2019-04-14T01:47:45.268Z,-72
2019-04-14T01:48:45.405Z,-72
2019-04-14T01:49:46.517Z,-72
2019-04-14T01:50:45.265Z,-72
2019-04-14T01:51:46.334Z,-72
2019-04-14T01:52:45.778Z,-73
2019-04-14T01:53:45.267Z,-72
2019-04-14T01:54:45.400Z,-73
2019-04-14T01:55:46.216Z,-72
2019-04-14T01:56:45.276Z,-74
2019-04-14T01:57:45.945Z,-74
2019-04-14T01:58:45.272Z,-74
2019-04-14T01:59:45.984Z,-74
2019-04-14T02:00:45.275Z,-76
2019-04-14T02:01:45.660Z,-74
2019-04-14T02:02:46.326Z,-73
2019-04-14T02:03:45.574Z,-72
2019-04-14T02:04:46.386Z,-72
2019-04-14T02:05:45.397Z,-72
2019-04-14T02:06:46.211Z,-72
2019-04-14T02:07:45.280Z,-72
2019-04-14T02:08:45.832Z,-72
2019-04-14T02:09:45.309Z,-72
2019-04-14T02:10:45.584Z,-72
2019-04-14T02:11:46.304Z,-72
2019-04-14T02:12:45.292Z,-71
2019-04-14T02:13:46.430Z,-71
2019-04-14T02:14:45.311Z,-71
2019-04-14T02:15:46.435Z,-71
2019-04-14T02:16:50.747Z,-71
2019-04-14T02:17:46.029Z,-71
2019-04-14T02:18:45.288Z,-71
2019-04-14T02:19:45.976Z,-71
2019-04-14T02:20:45.293Z,-71
2019-04-14T02:21:45.604Z,-71
2019-04-14T02:22:46.312Z,-71
2019-04-14T02:23:45.413Z,-70
2019-04-14T02:24:45.992Z,-70
2019-04-14T02:25:45.295Z,-69
2019-04-14T02:26:45.917Z,-72
2019-04-14T02:27:45.296Z,-72
2019-04-14T02:28:46.151Z,-72
2019-04-14T02:29:45.324Z,-71
2019-04-14T02:30:52.222Z,-71
2019-04-14T02:32:17.040Z,-70
2019-04-14T02:33:13.357Z,-71
2019-04-14T02:34:24.859Z,-70
2019-04-14T02:35:20.404Z,-71
2019-04-14T02:36:37.740Z,-72
2019-04-14T02:37:43.042Z,-72
2019-04-14T02:39:13.323Z,-71
2019-04-14T02:40:07.477Z,-72
2019-04-14T02:41:35.540Z,-71
2019-04-14T02:43:37.355Z,-71
2019-04-14T02:44:35.973Z,-71
2019-04-14T02:46:45.455Z,-71
2019-04-14T02:48:43.986Z,-71
2019-04-14T02:50:55.026Z,-71
2019-04-14T02:52:03.882Z,-71
2019-04-14T02:53:07.224Z,-71
2019-04-14T02:54:22.437Z,-71
2019-04-14T02:55:15.059Z,-71
2019-04-14T02:56:27.655Z,-71
2019-04-14T02:57:22.550Z,-71
2019-04-14T02:58:44.188Z,-70
2019-04-14T02:59:26.437Z,-71
2019-04-14T03:03:37.043Z,-71
2019-04-14T03:05:44.151Z,-71
2019-04-14T03:06:40.637Z,-71
2019-04-14T03:08:06.221Z,-71
2019-04-14T03:09:18.767Z,-71
2019-04-14T03:10:17.689Z,-71
2019-04-14T03:11:24.229Z,-71
2019-04-14T03:12:24.287Z,-71
2019-04-14T03:13:34.355Z,-70
2019-04-14T03:14:38.907Z,-71
2019-04-14T03:15:54.955Z,-71
2019-04-14T03:17:05.302Z,-71
2019-04-14T03:18:23.743Z,-71
2019-04-14T03:19:13.680Z,-70
2019-04-14T03:21:13.028Z,-71
2019-04-14T03:22:36.772Z,-71
2019-04-14T03:23:48.322Z,-72
2019-04-14T03:24:46.422Z,-71
2019-04-14T03:25:56.742Z,-71
2019-04-14T03:27:03.953Z,-71
2019-04-14T03:27:58.211Z,-71
2019-04-14T03:28:56.061Z,-71
2019-04-14T03:35:19.327Z,-70
2019-04-14T03:37:58.846Z,-71
2019-04-14T03:39:05.538Z,-71
2019-04-14T03:39:56.921Z,-72
2019-04-14T03:42:19.571Z,-72
2019-04-14T03:43:36.631Z,-72
2019-04-14T03:44:40.999Z,-72
2019-04-14T03:45:58.726Z,-72
2019-04-14T03:47:05.058Z,-71
2019-04-14T03:51:44.218Z,-72
2019-04-14T03:53:15.622Z,-71
2019-04-14T03:54:02.752Z,-71
2019-04-14T03:55:00.682Z,-72
2019-04-14T03:55:49.001Z,-71
2019-04-14T03:56:44.257Z,-72
2019-04-14T03:57:43.786Z,-72
2019-04-14T03:58:44.403Z,-71
2019-04-14T03:59:43.789Z,-71
2019-04-14T04:00:44.312Z,-71
2019-04-14T04:01:43.791Z,-71
2019-04-14T04:02:44.439Z,-71
2019-04-14T04:03:43.793Z,-71
2019-04-14T04:04:44.463Z,-71
2019-04-14T04:05:43.915Z,-71
2019-04-14T04:06:44.242Z,-71
2019-04-14T04:07:43.795Z,-70
2019-04-14T04:08:44.104Z,-71
2019-04-14T04:09:43.795Z,-70
2019-04-14T04:10:44.288Z,-71
2019-04-14T04:11:43.823Z,-70
2019-04-14T04:12:44.349Z,-70
2019-04-14T04:13:43.800Z,-71
2019-04-14T04:14:44.176Z,-71
2019-04-14T04:15:43.801Z,-71
2019-04-14T04:16:44.024Z,-71
2019-04-14T04:17:45.058Z,-71
2019-04-14T04:18:50.729Z,-71
2019-04-14T04:19:44.759Z,-70
2019-04-14T04:20:43.806Z,-71
2019-04-14T04:21:44.428Z,-71
2019-04-14T04:22:43.807Z,-71
2019-04-14T04:23:44.654Z,-71
2019-04-14T04:24:43.809Z,-70
2019-04-14T04:25:44.402Z,-71
2019-04-14T04:26:44.842Z,-70
2019-04-14T04:27:44.059Z,-70
2019-04-14T04:28:44.773Z,-70
2019-04-14T04:29:44.058Z,-70
2019-04-14T04:30:44.900Z,-70
2019-04-14T04:31:43.959Z,-70
2019-04-14T04:32:44.774Z,-71
2019-04-14T04:33:43.820Z,-70
2019-04-14T04:34:44.533Z,-70
2019-04-14T04:35:43.819Z,-69
2019-04-14T04:36:44.192Z,-69
2019-04-14T04:37:43.822Z,-70
2019-04-14T04:38:44.242Z,-70
2019-04-14T04:39:43.821Z,-70
2019-04-14T04:40:44.016Z,-70
2019-04-14T04:41:44.965Z,-70
2019-04-14T04:42:43.824Z,-70
2019-04-14T04:43:44.917Z,-70
2019-04-14T04:44:44.164Z,-70
2019-04-14T04:45:43.830Z,-70
2019-04-14T04:46:43.912Z,-70
2019-04-14T04:47:44.788Z,-69
2019-04-14T04:48:56.398Z,-70
2019-04-14T04:49:44.696Z,-71
2019-04-14T04:50:43.830Z,-70
2019-04-14T04:51:44.299Z,-71
2019-04-14T04:52:45.089Z,-70
2019-04-14T04:53:44.048Z,-71
2019-04-14T04:54:44.900Z,-70
2019-04-14T04:55:43.952Z,-71
2019-04-14T04:56:44.867Z,-70
2019-04-14T04:57:43.873Z,-71
2019-04-14T04:58:43.838Z,-71
2019-04-14T04:59:43.837Z,-70
2019-04-14T05:00:44.822Z,-71
2019-04-14T05:01:45.055Z,-70
2019-04-14T05:02:43.934Z,-71
2019-04-14T05:03:44.665Z,-70
2019-04-14T05:04:43.925Z,-70
2019-04-14T05:05:44.757Z,-71
2019-04-14T05:06:43.868Z,-71
2019-04-14T05:07:44.758Z,-71
2019-04-14T05:08:43.844Z,-71
2019-04-14T05:09:44.806Z,-71
2019-04-14T05:10:43.846Z,-71
2019-04-14T05:11:44.782Z,-72
2019-04-14T05:12:43.849Z,-72
2019-04-14T05:13:44.596Z,-72
2019-04-14T05:14:43.849Z,-72
2019-04-14T05:15:44.574Z,-72
2019-04-14T05:16:44.059Z,-72
2019-04-14T05:17:45.160Z,-72
2019-04-14T05:18:44.106Z,-72
2019-04-14T05:19:43.856Z,-72
2019-04-14T05:20:44.142Z,-72
2019-04-14T05:21:45.143Z,-72
2019-04-14T05:22:44.008Z,-70
2019-04-14T05:23:43.855Z,-71
2019-04-14T05:24:44.083Z,-71
2019-04-14T05:25:45.101Z,-71
2019-04-14T05:26:43.889Z,-71
2019-04-14T05:27:45.097Z,-71
2019-04-14T05:28:43.903Z,-70
2019-04-14T05:29:44.985Z,-72
2019-04-14T05:30:43.862Z,-72
2019-04-14T05:31:44.703Z,-73
2019-04-14T05:32:43.890Z,-73
2019-04-14T05:33:44.740Z,-73
2019-04-14T05:34:43.866Z,-72
2019-04-14T05:35:44.493Z,-72
2019-04-14T05:36:43.870Z,-71
2019-04-14T05:37:44.342Z,-71
2019-04-14T05:38:44.898Z,-71
2019-04-14T05:39:44.080Z,-72
2019-04-14T05:40:44.961Z,-72
2019-04-14T05:41:56.621Z,-71
2019-04-14T05:42:45.001Z,-71
2019-04-14T05:43:50.100Z,-71
2019-04-14T05:44:44.767Z,-71
2019-04-14T05:45:43.875Z,-72
2019-04-14T05:46:44.644Z,-72
2019-04-14T05:47:43.902Z,-72
2019-04-14T05:48:44.634Z,-73
2019-04-14T05:49:48.146Z,-73
2019-04-14T05:50:44.361Z,-71
2019-04-14T05:51:43.882Z,-71
2019-04-14T05:52:44.710Z,-71
2019-04-14T05:53:43.938Z,-71
2019-04-14T05:54:44.695Z,-71
2019-04-14T05:55:43.887Z,-71
2019-04-14T05:56:44.711Z,-72
2019-04-14T05:57:43.910Z,-71
2019-04-14T05:58:44.729Z,-71
2019-04-14T05:59:44.081Z,-71
2019-04-14T06:00:43.887Z,-71
2019-04-14T06:01:44.283Z,-71
2019-04-14T06:02:44.163Z,-71
2019-04-14T06:03:43.914Z,-71
2019-04-14T06:04:44.020Z,-72
2019-04-14T06:05:44.925Z,-71
2019-04-14T06:06:43.890Z,-71
2019-04-14T06:07:43.894Z,-71
2019-04-14T06:08:43.893Z,-70
2019-04-14T06:09:43.896Z,-70
2019-04-14T06:10:43.896Z,-71
2019-04-14T06:11:43.895Z,-70
2019-04-14T06:12:43.898Z,-71
2019-04-14T06:13:43.921Z,-71
2019-04-14T06:14:43.898Z,-71
2019-04-14T06:15:43.900Z,-69
2019-04-14T06:16:43.902Z,-69
2019-04-14T06:17:43.900Z,-69
2019-04-14T06:18:43.904Z,-69
2019-04-14T06:19:43.905Z,-69
2019-04-14T06:20:43.905Z,-69
2019-04-14T06:21:43.903Z,-69
2019-04-14T06:22:43.905Z,-70
2019-04-14T06:23:43.933Z,-70
2019-04-14T06:24:44.101Z,-69
2019-04-14T06:25:43.909Z,-69
2019-04-14T06:26:43.907Z,-70
2019-04-14T06:27:43.911Z,-72
2019-04-14T06:28:43.935Z,-69
2019-04-14T06:29:43.912Z,-69
2019-04-14T06:30:43.911Z,-69
2019-04-14T06:31:43.913Z,-69
2019-04-14T06:32:43.912Z,-69
2019-04-14T06:33:43.941Z,-69
2019-04-14T06:34:43.914Z,-70
2019-04-14T06:35:43.915Z,-69
2019-04-14T06:36:43.918Z,-70
2019-04-14T06:37:43.916Z,-70
2019-04-14T06:38:43.944Z,-75
2019-04-14T06:39:43.922Z,-69
2019-04-14T06:40:43.925Z,-69
2019-04-14T06:41:43.922Z,-69
2019-04-14T06:42:43.926Z,-69
2019-04-14T06:43:48.847Z,-69
2019-04-14T06:44:43.926Z,-70
2019-04-14T06:45:43.923Z,-70
2019-04-14T06:46:43.923Z,-69
2019-04-14T06:47:43.929Z,-69
2019-04-14T06:48:43.950Z,-70
2019-04-14T06:49:49.017Z,-69
2019-04-14T06:50:46.286Z,-70
2019-04-14T06:51:43.933Z,-69
2019-04-14T06:52:43.930Z,-69
2019-04-14T06:53:43.955Z,-69
2019-04-14T06:54:43.932Z,-69
2019-04-14T06:55:43.932Z,-69
2019-04-14T06:56:43.936Z,-69
2019-04-14T06:57:43.937Z,-69
2019-04-14T06:58:43.959Z,-69
2019-04-14T06:59:43.936Z,-69
2019-04-14T07:00:43.934Z,-69
2019-04-14T07:01:43.937Z,-69
2019-04-14T07:02:45.453Z,-69
2019-04-14T07:03:43.964Z,-69
2019-04-14T07:04:43.938Z,-69
2019-04-14T07:05:43.944Z,-70
2019-04-14T07:06:43.945Z,-69
2019-04-14T07:07:43.979Z,-69
2019-04-14T07:08:44.008Z,-70
2019-04-14T07:09:44.043Z,-70
2019-04-14T07:10:43.945Z,-70
2019-04-14T07:11:44.328Z,-69
2019-04-14T07:12:43.947Z,-69
2019-04-14T07:13:47.786Z,-69
2019-04-14T07:14:43.949Z,-69
2019-04-14T07:15:43.951Z,-69
2019-04-14T07:16:43.949Z,-69
2019-04-14T07:17:43.951Z,-69
2019-04-14T07:18:43.951Z,-69
2019-04-14T07:19:43.977Z,-70
2019-04-14T07:20:43.952Z,-69
2019-04-14T07:21:43.953Z,-69
2019-04-14T07:22:43.957Z,-69
2019-04-14T07:23:44.062Z,-69
2019-04-14T07:24:43.955Z,-69
2019-04-14T07:25:43.958Z,-68
2019-04-14T07:26:43.958Z,-69
2019-04-14T07:27:43.964Z,-69
2019-04-14T07:28:55.925Z,-68
2019-04-14T07:29:43.993Z,-69
2019-04-14T07:30:44.139Z,-69
2019-04-14T07:31:43.961Z,-69
2019-04-14T07:32:43.963Z,-69
2019-04-14T07:33:43.965Z,-69
2019-04-14T07:34:43.966Z,-69
2019-04-14T07:35:43.965Z,-69
2019-04-14T07:36:43.968Z,-69
2019-04-14T07:37:43.968Z,-69
2019-04-14T07:38:43.970Z,-69
2019-04-14T07:39:43.993Z,-69
2019-04-14T07:40:43.969Z,-69
2019-04-14T07:41:43.976Z,-70
2019-04-14T07:42:43.970Z,-69
2019-04-14T07:43:43.971Z,-69
2019-04-14T07:44:44.002Z,-70
2019-04-14T07:45:43.977Z,-69
2019-04-14T07:46:43.977Z,-69
2019-04-14T07:47:43.979Z,-69
2019-04-14T07:48:43.976Z,-69
2019-04-14T07:49:44.002Z,-69
2019-04-14T07:50:43.983Z,-71
2019-04-14T07:51:43.980Z,-69
2019-04-14T07:52:43.979Z,-70
2019-04-14T07:53:43.984Z,-69
2019-04-14T07:54:44.010Z,-69
2019-04-14T07:55:43.985Z,-69
2019-04-14T07:56:43.983Z,-69
2019-04-14T07:57:43.983Z,-69
2019-04-14T07:58:43.982Z,-69
2019-04-14T07:59:44.009Z,-69
2019-04-14T08:00:43.985Z,-69
2019-04-14T08:01:44.041Z,-70
2019-04-14T08:02:43.987Z,-69
2019-04-14T08:03:43.987Z,-69
2019-04-14T08:04:44.013Z,-69
2019-04-14T08:05:43.989Z,-69
2019-04-14T08:06:43.993Z,-69
2019-04-14T08:07:43.992Z,-69
2019-04-14T08:08:43.993Z,-69
2019-04-14T08:09:44.019Z,-69
2019-04-14T08:10:43.995Z,-69
2019-04-14T08:11:43.997Z,-69
2019-04-14T08:12:43.996Z,-69
2019-04-14T08:13:43.997Z,-69
2019-04-14T08:14:44.021Z,-69
2019-04-14T08:15:43.999Z,-69
2019-04-14T08:16:44.006Z,-69
2019-04-14T08:17:43.998Z,-69
2019-04-14T08:18:44.001Z,-69
2019-04-14T08:19:44.026Z,-69
2019-04-14T08:20:44.004Z,-69
2019-04-14T08:21:44.004Z,-69
2019-04-14T08:22:44.004Z,-70
2019-04-14T08:23:44.004Z,-70
2019-04-14T08:24:44.032Z,-69
2019-04-14T08:25:44.015Z,-69
2019-04-14T08:26:44.007Z,-69
2019-04-14T08:27:44.009Z,-69
2019-04-14T08:28:44.010Z,-70
2019-04-14T08:29:44.035Z,-70
2019-04-14T08:30:44.010Z,-71
2019-04-14T08:31:44.011Z,-69
2019-04-14T08:32:44.013Z,-69
2019-04-14T08:33:44.013Z,-69
2019-04-14T08:34:44.037Z,-70
2019-04-14T08:35:44.015Z,-70
2019-04-14T08:36:44.014Z,-69
2019-04-14T08:37:44.019Z,-69
2019-04-14T08:38:44.015Z,-69
2019-04-14T08:39:44.017Z,-69
2019-04-14T08:40:44.019Z,-69
2019-04-14T08:41:44.018Z,-69
2019-04-14T08:42:44.020Z,-69
2019-04-14T08:43:44.021Z,-69
2019-04-14T08:44:44.022Z,-69
2019-04-14T08:45:44.048Z,-69
2019-04-14T08:46:44.024Z,-69
2019-04-14T08:47:44.209Z,-69
2019-04-14T08:48:44.037Z,-69
2019-04-14T08:49:44.027Z,-69
2019-04-14T08:50:44.027Z,-69
2019-04-14T08:51:44.029Z,-69
2019-04-14T08:52:44.218Z,-69
2019-04-14T08:53:44.247Z,-70
2019-04-14T08:54:44.253Z,-70
2019-04-14T08:55:44.363Z,-69
2019-04-14T08:56:44.266Z,-69
2019-04-14T08:57:44.106Z,-69
2019-04-14T08:58:44.177Z,-69
2019-04-14T08:59:44.154Z,-70
2019-04-14T09:00:44.187Z,-69
2019-04-14T09:01:44.194Z,-69
2019-04-14T09:02:44.092Z,-69
2019-04-14T09:03:44.313Z,-69
2019-04-14T09:04:44.188Z,-69
2019-04-14T09:05:44.064Z,-69
2019-04-14T09:06:44.041Z,-69
2019-04-14T09:07:44.041Z,-69
2019-04-14T09:08:44.041Z,-69
2019-04-14T09:09:44.042Z,-69
2019-04-14T09:10:44.042Z,-69
2019-04-14T09:11:44.044Z,-69
2019-04-14T09:12:44.045Z,-69
2019-04-14T09:13:44.046Z,-69
2019-04-14T09:14:55.892Z,-70
2019-04-14T09:15:44.072Z,-69
2019-04-14T09:16:44.049Z,-69
2019-04-14T09:17:44.050Z,-69
2019-04-14T09:18:44.051Z,-69
2019-04-14T09:19:44.051Z,-69
2019-04-14T09:20:52.001Z,-69
2019-04-14T09:21:44.051Z,-69
2019-04-14T09:22:44.054Z,-69
2019-04-14T09:23:44.054Z,-69
2019-04-14T09:24:44.055Z,-69
2019-04-14T09:25:44.079Z,-69
2019-04-14T09:26:44.057Z,-69
2019-04-14T09:27:44.059Z,-69
2019-04-14T09:28:44.061Z,-69
2019-04-14T09:29:44.063Z,-69
2019-04-14T09:30:44.086Z,-69
2019-04-14T09:31:44.061Z,-69
2019-04-14T09:32:44.062Z,-69
2019-04-14T09:33:44.064Z,-70
2019-04-14T09:34:44.062Z,-70
2019-04-14T09:35:44.089Z,-69
2019-04-14T09:36:44.066Z,-69
2019-04-14T09:37:44.070Z,-69
2019-04-14T09:38:44.065Z,-69
2019-04-14T09:39:44.068Z,-69
2019-04-14T09:40:44.094Z,-70
2019-04-14T09:41:44.238Z,-69
2019-04-14T09:42:44.137Z,-69
2019-04-14T09:43:44.073Z,-70
2019-04-14T09:44:44.071Z,-69
2019-04-14T09:45:44.097Z,-69
2019-04-14T09:46:44.074Z,-70
2019-04-14T09:47:44.075Z,-69
2019-04-14T09:48:44.077Z,-70
2019-04-14T09:49:44.075Z,-70
2019-04-14T09:50:44.100Z,-69
2019-04-14T09:51:44.078Z,-69
2019-04-14T09:52:44.078Z,-69
2019-04-14T09:53:44.081Z,-69
2019-04-14T09:54:44.080Z,-69
2019-04-14T09:55:44.105Z,-69
2019-04-14T09:56:44.081Z,-69
2019-04-14T09:57:44.082Z,-69
2019-04-14T09:58:44.084Z,-69
2019-04-14T09:59:44.094Z,-69
2019-04-14T10:00:44.122Z,-69
2019-04-14T10:01:44.086Z,-69
2019-04-14T10:02:44.088Z,-69
2019-04-14T10:03:44.088Z,-69
2019-04-14T10:04:44.090Z,-69
2019-04-14T10:05:44.115Z,-69
2019-04-14T10:06:44.105Z,-69
2019-04-14T10:07:44.092Z,-69
2019-04-14T10:08:44.095Z,-69
2019-04-14T10:09:44.093Z,-69
2019-04-14T10:10:44.118Z,-70
2019-04-14T10:11:48.699Z,-69
2019-04-14T10:12:44.095Z,-70
2019-04-14T10:13:44.098Z,-70
2019-04-14T10:14:44.097Z,-70
2019-04-14T10:15:44.124Z,-69
2019-04-14T10:16:44.100Z,-70
2019-04-14T10:17:44.101Z,-70
2019-04-14T10:18:44.100Z,-70
2019-04-14T10:19:44.102Z,-70
2019-04-14T10:20:44.136Z,-69
2019-04-14T10:21:44.103Z,-70
2019-04-14T10:22:44.104Z,-69
2019-04-14T10:23:44.105Z,-70
2019-04-14T10:24:44.107Z,-69
2019-04-14T10:25:44.107Z,-70
2019-04-14T10:26:44.106Z,-70
2019-04-14T10:27:44.191Z,-70
2019-04-14T10:28:44.109Z,-69
2019-04-14T10:29:44.110Z,-70
2019-04-14T10:30:44.112Z,-70
2019-04-14T10:31:44.135Z,-70
2019-04-14T10:32:44.116Z,-69
2019-04-14T10:33:44.114Z,-69
2019-04-14T10:34:44.113Z,-69
2019-04-14T10:35:44.115Z,-69
2019-04-14T10:36:44.116Z,-69
2019-04-14T10:37:44.117Z,-70
2019-04-14T10:38:44.117Z,-70
2019-04-14T10:39:44.121Z,-70
2019-04-14T10:40:44.122Z,-69
2019-04-14T10:41:44.175Z,-69
2019-04-14T10:42:44.122Z,-70
2019-04-14T10:43:44.124Z,-69
2019-04-14T10:44:44.125Z,-69
2019-04-14T10:45:44.124Z,-68
2019-04-14T10:46:44.339Z,-69
2019-04-14T10:47:44.126Z,-70
2019-04-14T10:48:44.127Z,-69
2019-04-14T10:49:44.127Z,-69
2019-04-14T10:50:44.128Z,-69
2019-04-14T10:51:44.154Z,-69
2019-04-14T10:52:44.129Z,-69
2019-04-14T10:53:44.130Z,-69
2019-04-14T10:54:44.130Z,-69
2019-04-14T10:55:44.135Z,-69
2019-04-14T10:56:44.158Z,-69
2019-04-14T10:57:44.135Z,-69
2019-04-14T10:58:44.140Z,-69
2019-04-14T10:59:44.135Z,-69
2019-04-14T11:00:44.136Z,-69
2019-04-14T11:01:44.164Z,-70
2019-04-14T11:02:44.138Z,-69
2019-04-14T11:03:44.140Z,-69
2019-04-14T11:04:44.140Z,-70
2019-04-14T11:05:44.351Z,-69
2019-04-14T11:06:44.165Z,-70
2019-04-14T11:07:44.142Z,-70
2019-04-14T11:08:44.143Z,-69
2019-04-14T11:09:44.143Z,-69
2019-04-14T11:10:44.146Z,-69
2019-04-14T11:11:44.173Z,-70
2019-04-14T11:12:44.145Z,-69
2019-04-14T11:13:44.149Z,-69
2019-04-14T11:14:44.147Z,-69
2019-04-14T11:15:44.149Z,-69
2019-04-14T11:16:44.176Z,-69
2019-04-14T11:17:44.154Z,-69
2019-04-14T11:18:44.153Z,-69
2019-04-14T11:19:44.151Z,-69
2019-04-14T11:20:44.154Z,-69
2019-04-14T11:21:44.178Z,-69
2019-04-14T11:22:44.161Z,-69
2019-04-14T11:23:44.156Z,-69
2019-04-14T11:24:44.164Z,-69
2019-04-14T11:25:44.164Z,-69
2019-04-14T11:26:45.334Z,-69
2019-04-14T11:27:44.186Z,-69
2019-04-14T11:28:44.162Z,-69
2019-04-14T11:29:44.161Z,-69
2019-04-14T11:30:44.161Z,-69
2019-04-14T11:31:44.162Z,-69
2019-04-14T11:32:44.163Z,-69
2019-04-14T11:33:44.163Z,-69
2019-04-14T11:34:44.165Z,-69
2019-04-14T11:35:44.173Z,-69
2019-04-14T11:36:44.168Z,-68
2019-04-14T11:37:44.192Z,-69
2019-04-14T11:38:44.174Z,-69
2019-04-14T11:39:44.177Z,-69
2019-04-14T11:40:44.185Z,-69
2019-04-14T11:41:44.171Z,-69
2019-04-14T11:42:52.023Z,-69
2019-04-14T11:43:44.178Z,-69
2019-04-14T11:44:44.175Z,-69
2019-04-14T11:45:44.191Z,-69
2019-04-14T11:46:44.175Z,-69
2019-04-14T11:47:44.201Z,-69
2019-04-14T11:48:44.177Z,-69
2019-04-14T11:49:44.177Z,-69
2019-04-14T11:50:44.182Z,-70
2019-04-14T11:51:54.588Z,-69
2019-04-14T11:52:44.181Z,-69
2019-04-14T11:53:44.184Z,-69
2019-04-14T11:54:44.182Z,-70
2019-04-14T11:55:44.190Z,-69
2019-04-14T11:56:44.182Z,-69
2019-04-14T11:57:44.209Z,-69
2019-04-14T11:58:44.375Z,-69
2019-04-14T11:59:44.203Z,-69
2019-04-14T12:00:44.187Z,-69
2019-04-14T12:01:44.188Z,-68
2019-04-14T12:02:44.959Z,-68
2019-04-14T12:03:44.190Z,-69
2019-04-14T12:04:44.191Z,-69
2019-04-14T12:05:44.189Z,-69
2019-04-14T12:06:44.193Z,-69
2019-04-14T12:07:44.217Z,-69
2019-04-14T12:08:45.554Z,-69
2019-04-14T12:09:44.196Z,-68
2019-04-14T12:10:44.195Z,-69
2019-04-14T12:11:44.197Z,-69
2019-04-14T12:12:44.221Z,-69
2019-04-14T12:13:44.200Z,-69
2019-04-14T12:14:44.201Z,-69
2019-04-14T12:15:44.200Z,-69
2019-04-14T12:16:44.203Z,-69
2019-04-14T12:17:44.227Z,-69
2019-04-14T12:18:44.201Z,-69
2019-04-14T12:19:44.206Z,-70
2019-04-14T12:20:44.215Z,-69
2019-04-14T12:21:44.206Z,-69
2019-04-14T12:22:44.232Z,-69
2019-04-14T12:23:44.206Z,-69
2019-04-14T12:24:44.205Z,-69
2019-04-14T12:25:44.208Z,-69
2019-04-14T12:26:44.208Z,-69
2019-04-14T12:27:44.361Z,-70
2019-04-14T12:28:45.005Z,-68
2019-04-14T12:29:44.223Z,-69
2019-04-14T12:30:44.369Z,-69
2019-04-14T12:31:44.212Z,-69
2019-04-14T12:32:44.239Z,-69
2019-04-14T12:33:44.214Z,-69
2019-04-14T12:34:44.215Z,-69
2019-04-14T12:35:44.502Z,-69
2019-04-14T12:36:44.218Z,-70
2019-04-14T12:37:44.241Z,-69
2019-04-14T12:38:44.220Z,-69
2019-04-14T12:39:44.220Z,-69
2019-04-14T12:40:44.387Z,-69
2019-04-14T12:41:44.222Z,-69
2019-04-14T12:42:44.247Z,-69
2019-04-14T12:43:44.223Z,-69
2019-04-14T12:44:44.234Z,-70
2019-04-14T12:45:44.226Z,-69
2019-04-14T12:46:44.224Z,-69
2019-04-14T12:47:44.251Z,-69
2019-04-14T12:48:44.227Z,-69
2019-04-14T12:49:44.227Z,-69
2019-04-14T12:50:44.228Z,-69
2019-04-14T12:51:44.232Z,-69
2019-04-14T12:52:44.255Z,-69
2019-04-14T12:53:44.231Z,-70
2019-04-14T12:54:44.239Z,-69
2019-04-14T12:55:44.233Z,-69
2019-04-14T12:56:44.234Z,-69
2019-04-14T12:57:44.269Z,-69
2019-04-14T12:58:44.239Z,-69
2019-04-14T12:59:44.238Z,-69
2019-04-14T13:00:44.248Z,-68
2019-04-14T13:01:44.240Z,-69
2019-04-14T13:02:44.238Z,-69
2019-04-14T13:03:44.263Z,-69
2019-04-14T13:04:44.245Z,-69
2019-04-14T13:05:44.242Z,-69
2019-04-14T13:06:44.242Z,-69
2019-04-14T13:07:44.242Z,-69
2019-04-14T13:08:44.244Z,-69
2019-04-14T13:09:44.298Z,-69
2019-04-14T13:10:44.244Z,-69
2019-04-14T13:11:44.246Z,-69
2019-04-14T13:12:44.246Z,-69
2019-04-14T13:13:44.275Z,-68
2019-04-14T13:14:44.249Z,-69
2019-04-14T13:15:44.251Z,-68
2019-04-14T13:16:44.276Z,-69
2019-04-14T13:17:44.250Z,-69
2019-04-14T13:18:44.254Z,-69
2019-04-14T13:19:44.257Z,-68
2019-04-14T13:20:44.277Z,-68
2019-04-14T13:21:44.260Z,-68
2019-04-14T13:22:44.255Z,-68
2019-04-14T13:23:44.342Z,-69
2019-04-14T13:24:44.258Z,-69
2019-04-14T13:25:44.258Z,-69
2019-04-14T13:26:44.263Z,-69
2019-04-14T13:27:44.260Z,-69
2019-04-14T13:28:44.261Z,-69
2019-04-14T13:29:44.262Z,-69
2019-04-14T13:30:44.262Z,-69
2019-04-14T13:31:44.278Z,-69
2019-04-14T13:32:44.264Z,-69
2019-04-14T13:33:44.291Z,-69
2019-04-14T13:34:44.267Z,-70
2019-04-14T13:35:44.266Z,-69
2019-04-14T13:36:44.270Z,-69
2019-04-14T13:37:44.269Z,-69
2019-04-14T13:38:44.295Z,-69
2019-04-14T13:39:44.271Z,-69
2019-04-14T13:40:44.271Z,-69
2019-04-14T13:41:44.287Z,-69
2019-04-14T13:42:44.273Z,-69
2019-04-14T13:43:44.296Z,-69
2019-04-14T13:44:44.274Z,-69
2019-04-14T13:45:44.324Z,-70
2019-04-14T13:46:44.274Z,-68
2019-04-14T13:47:44.277Z,-69
2019-04-14T13:48:44.302Z,-69
2019-04-14T13:49:44.280Z,-69
2019-04-14T13:50:44.281Z,-68
2019-04-14T13:51:44.281Z,-69
2019-04-14T13:52:46.809Z,-69
2019-04-14T13:53:44.306Z,-69
2019-04-14T13:54:44.284Z,-69
2019-04-14T13:55:44.285Z,-69
2019-04-14T13:56:44.284Z,-69
2019-04-14T13:57:44.287Z,-68
2019-04-14T13:58:44.315Z,-69
2019-04-14T13:59:44.286Z,-69
2019-04-14T14:00:44.288Z,-69
2019-04-14T14:01:44.289Z,-69
2019-04-14T14:02:44.291Z,-72
2019-04-14T14:03:44.315Z,-69
2019-04-14T14:04:44.291Z,-68
2019-04-14T14:05:44.450Z,-68
2019-04-14T14:06:44.317Z,-68
2019-04-14T14:07:44.295Z,-69
2019-04-14T14:08:44.328Z,-69
2019-04-14T14:09:44.389Z,-68
2019-04-14T14:10:44.302Z,-68
2019-04-14T14:11:44.320Z,-68
2019-04-14T14:12:44.298Z,-69
2019-04-14T14:13:44.322Z,-68